New Shoreham, Rhode Island
Current Conditions -  °F | °C
As of 7:15 AM on Monday 26 Jan 2015 (Local Time) from KBID Reporting Station
Overcast Overcast  
Wind Chill: -11°   Ceiling: 5000
Heat Index: -4°   Visibility: 10mi
Dew Point: -11°   Wind: 14mph
Humidity: 59%   Direction: 50°NE
Pressure: 30.04"   Gusts: 24mph
Location:  41.1768°N, 71.5785°W
Report Text: KBID 261215Z AUTO 05012G21KT 10SM OVC050 M04/M11 A3004 RMK AO1
Loading
Personal Weather Stations






























Interactive Weather Map New forecast layout! Learn more

10-Day Weather Forecast

Advertisements
Track Severe Weather on mobile